Time;durP1;ratioP1;P1;durP2;ratioP2;P2;SDS_P1;SDS_P2;PMS_P1;PMS_P2;Temp;Humidity;BMP_temperature;BMP_pressure;BME280_temperature;BME280_humidity;BME280_pressure;Samples;Min_cycle;Max_cycle;Signal;HPM_P1;HPM_P2
2023/08/29 00:00:26;;;;;;;112.60;3.27;;;19.30;44.80;;;;;;5034860;28;20602;-71
2023/08/29 00:02:53;;;;;;;112.20;2.90;;;19.30;45.10;;;;;;5034764;28;20276;-71
2023/08/29 00:05:19;;;;;;;112.57;3.20;;;19.30;44.90;;;;;;5034497;28;20480;-72
2023/08/29 00:07:45;;;;;;;112.47;3.20;;;19.40;43.90;;;;;;5017041;28;20461;-71
2023/08/29 00:10:10;;;;;;;113.87;3.73;;;19.30;45.10;;;;;;5034534;28;20443;-72
2023/08/29 00:12:36;;;;;;;112.83;3.47;;;19.30;44.80;;;;;;5034615;28;20403;-72
2023/08/29 00:15:04;;;;;;;112.30;2.90;;;19.40;44.20;;;;;;5034831;28;20202;-71
2023/08/29 00:17:30;;;;;;;113.10;3.77;;;19.50;43.50;;;;;;5016716;28;20176;-71
2023/08/29 00:19:55;;;;;;;112.90;3.43;;;19.50;43.30;;;;;;5034504;28;20461;-72
2023/08/29 00:22:21;;;;;;;112.80;3.50;;;19.80;43.40;;;;;;5034475;28;20234;-71
2023/08/29 00:24:48;;;;;;;112.60;3.20;;;19.50;42.90;;;;;;5034310;28;20212;-71
2023/08/29 00:27:14;;;;;;;113.00;3.40;;;19.40;44.20;;;;;;5034185;28;20186;-71
2023/08/29 00:29:42;;;;;;;113.30;3.80;;;19.40;43.80;;;;;;5031117;28;20818;-71
2023/08/29 00:32:08;;;;;;;114.77;3.60;;;19.40;44.20;;;;;;5028171;28;20523;-71
2023/08/29 00:34:33;;;;;;;112.70;3.30;;;19.40;44.10;;;;;;5016221;28;20495;-72
2023/08/29 00:36:59;;;;;;;112.20;2.80;;;19.40;44.00;;;;;;5033857;28;20208;-71
2023/08/29 00:39:25;;;;;;;112.67;3.40;;;19.30;44.50;;;;;;5034221;28;20814;-70
2023/08/29 00:41:51;;;;;;;112.27;3.07;;;19.50;44.50;;;;;;5033778;28;20188;-71
2023/08/29 00:44:17;;;;;;;112.80;3.53;;;19.40;45.00;;;;;;5034436;28;20264;-71
2023/08/29 00:46:44;;;;;;;112.30;3.10;;;19.20;44.90;;;;;;5033814;28;20838;-71
2023/08/29 00:49:13;;;;;;;113.47;4.00;;;19.20;47.00;;;;;;5016171;28;20205;-71
2023/08/29 00:51:39;;;;;;;112.67;3.30;;;19.30;47.30;;;;;;5033964;28;20407;-71
2023/08/29 00:54:07;;;;;;;113.37;3.40;;;19.50;48.40;;;;;;5034147;28;20514;-71
2023/08/29 00:56:32;;;;;;;113.17;3.47;;;19.20;46.50;;;;;;5033669;28;20440;-71
2023/08/29 00:58:59;;;;;;;112.80;3.40;;;19.20;46.30;;;;;;5033851;28;20846;-71
2023/08/29 01:01:25;;;;;;;112.57;3.53;;;19.50;46.90;;;;;;5033697;28;20423;-71
2023/08/29 01:03:51;;;;;;;112.87;3.43;;;19.20;45.70;;;;;;5033706;28;20458;-71
2023/08/29 01:06:17;;;;;;;112.60;3.20;;;19.50;45.80;;;;;;5033411;28;20411;-71
2023/08/29 01:08:43;;;;;;;112.80;3.40;;;19.30;46.70;;;;;;5015801;28;20265;-71
2023/08/29 01:11:26;;;;;;;112.90;3.53;;;19.30;46.50;;;;;;5033361;28;20461;-71
2023/08/29 01:14:01;;;;;;;113.27;3.60;;;19.30;45.20;;;;;;5031892;28;20609;-71
2023/08/29 01:16:36;;;;;;;112.90;3.53;;;19.20;44.90;;;;;;5032313;28;20418;-72
2023/08/29 01:19:06;;;;;;;112.87;3.53;;;19.20;45.10;;;;;;5033383;28;21181;-71
2023/08/29 01:22:23;;;;;;;113.53;3.77;;;19.20;44.60;;;;;;5033360;28;20924;-70
2023/08/29 01:25:00;;;;;;;112.77;3.40;;;19.20;45.80;;;;;;4995039;28;20477;-71
2023/08/29 01:27:27;;;;;;;113.50;3.07;;;19.30;44.50;;;;;;4987523;28;20421;-71
2023/08/29 01:29:53;;;;;;;114.17;3.80;;;19.30;45.60;;;;;;4991521;28;20436;-71
2023/08/29 01:32:19;;;;;;;112.27;2.77;;;19.60;45.40;;;;;;4987540;28;20492;-71
2023/08/29 01:34:46;;;;;;;112.43;3.20;;;19.50;44.90;;;;;;4973189;28;20428;-71
2023/08/29 01:37:12;;;;;;;112.47;3.30;;;19.50;44.50;;;;;;4991245;28;20503;-72
2023/08/29 01:39:38;;;;;;;112.47;3.07;;;19.20;44.40;;;;;;4991216;28;20519;-71
2023/08/29 01:42:04;;;;;;;112.37;3.00;;;19.30;44.40;;;;;;4974679;28;20718;-71
2023/08/29 01:44:29;;;;;;;113.20;3.50;;;19.30;45.50;;;;;;4991233;28;20555;-72
2023/08/29 01:46:55;;;;;;;112.60;3.10;;;19.00;47.10;;;;;;4991047;28;20181;-71
2023/08/29 01:49:20;;;;;;;112.47;3.07;;;19.40;47.20;;;;;;4991301;28;20197;-71
2023/08/29 01:51:46;;;;;;;112.87;3.23;;;19.00;47.40;;;;;;4991103;28;20682;-72
2023/08/29 01:54:12;;;;;;;113.07;3.47;;;19.00;47.30;;;;;;4991195;28;20276;-71
2023/08/29 01:56:39;;;;;;;112.27;2.97;;;19.30;48.10;;;;;;4990980;28;20270;-71
2023/08/29 01:59:06;;;;;;;112.87;3.50;;;18.80;47.10;;;;;;4991033;28;20197;-71
2023/08/29 02:01:32;;;;;;;112.60;3.10;;;19.10;46.70;;;;;;5023989;28;20427;-71
2023/08/29 02:03:58;;;;;;;112.80;3.50;;;18.90;46.60;;;;;;5032546;28;20456;-71
2023/08/29 02:06:23;;;;;;;112.47;3.10;;;19.20;46.90;;;;;;5032262;28;20496;-71
2023/08/29 02:08:49;;;;;;;112.80;3.40;;;19.00;47.00;;;;;;5032319;28;20212;-71
2023/08/29 02:11:15;;;;;;;112.40;2.93;;;19.00;46.90;;;;;;5032593;28;20172;-70
2023/08/29 02:13:40;;;;;;;113.23;3.20;;;18.70;47.00;;;;;;5032404;28;20597;-72
2023/08/29 02:16:06;;;;;;;112.80;3.43;;;18.70;46.90;;;;;;5014495;28;20187;-71
2023/08/29 02:18:31;;;;;;;112.33;3.10;;;19.10;47.30;;;;;;5032243;28;20181;-71
2023/08/29 02:20:57;;;;;;;112.40;2.93;;;19.10;46.30;;;;;;5032293;28;20193;-71
2023/08/29 02:23:23;;;;;;;112.70;3.37;;;18.90;46.20;;;;;;5032164;28;20216;-71
2023/08/29 02:26:05;;;;;;;112.67;3.23;;;19.20;44.50;;;;;;5032132;28;20251;-71
2023/08/29 02:28:35;;;;;;;113.00;3.50;;;19.20;44.40;;;;;;5026780;28;20452;-71
2023/08/29 02:31:03;;;;;;;113.13;3.50;;;19.20;43.50;;;;;;5031771;28;20415;-71
2023/08/29 02:33:28;;;;;;;112.57;3.20;;;19.10;45.20;;;;;;5031866;28;20423;-71
2023/08/29 02:35:54;;;;;;;112.40;3.10;;;19.10;44.40;;;;;;5032185;28;20419;-71
2023/08/29 02:38:20;;;;;;;112.87;3.30;;;19.10;44.50;;;;;;5014198;28;20172;-71
2023/08/29 02:40:45;;;;;;;112.40;3.17;;;19.10;45.40;;;;;;5014142;28;20192;-71
2023/08/29 02:43:11;;;;;;;112.60;3.30;;;19.10;45.10;;;;;;5031829;28;20676;-71
2023/08/29 02:45:36;;;;;;;113.07;3.30;;;19.20;45.90;;;;;;5031780;28;20361;-71
2023/08/29 02:48:02;;;;;;;112.93;3.47;;;19.00;46.80;;;;;;5031688;28;20553;-71
2023/08/29 02:50:28;;;;;;;113.00;3.47;;;18.80;48.40;;;;;;5031735;28;20207;-71
2023/08/29 02:52:53;;;;;;;114.70;3.60;;;18.80;49.30;;;;;;5031340;28;20903;-71
2023/08/29 02:55:19;;;;;;;112.43;3.33;;;19.00;46.10;;;;;;5031662;28;20176;-71
2023/08/29 02:57:44;;;;;;;112.43;3.00;;;19.00;46.30;;;;;;5014117;28;20182;-71
2023/08/29 03:00:10;;;;;;;112.87;3.43;;;19.30;47.10;;;;;;5031764;28;20192;-71
2023/08/29 03:02:36;;;;;;;112.37;3.07;;;19.00;46.70;;;;;;5031637;28;20246;-71
2023/08/29 03:05:02;;;;;;;112.73;3.33;;;18.90;47.90;;;;;;5031440;28;20824;-71
2023/08/29 03:07:28;;;;;;;113.27;3.50;;;18.90;47.60;;;;;;5031728;28;20169;-70
2023/08/29 03:09:54;;;;;;;112.60;3.20;;;19.00;46.30;;;;;;5027700;28;20471;-71
2023/08/29 03:12:19;;;;;;;112.37;3.17;;;18.90;47.70;;;;;;5028277;28;20184;-71
2023/08/29 03:14:45;;;;;;;112.70;3.20;;;18.90;48.10;;;;;;5031164;28;20208;-71
2023/08/29 03:17:10;;;;;;;112.47;3.17;;;19.00;46.50;;;;;;5031346;28;20200;-70
2023/08/29 03:19:36;;;;;;;112.77;3.43;;;19.00;47.10;;;;;;5027784;28;20292;-71
2023/08/29 03:22:01;;;;;;;112.47;3.10;;;19.30;45.60;;;;;;5030128;28;20182;-71
2023/08/29 03:24:27;;;;;;;113.13;3.67;;;18.80;46.60;;;;;;5031200;28;20213;-71
2023/08/29 03:26:52;;;;;;;117.73;3.53;;;18.80;46.30;;;;;;5031310;28;20201;-70
2023/08/29 03:29:18;;;;;;;113.23;3.30;;;18.90;47.00;;;;;;5031323;28;20691;-71
2023/08/29 03:31:44;;;;;;;112.70;3.37;;;19.00;45.30;;;;;;5031482;28;20507;-71
2023/08/29 03:34:09;;;;;;;112.60;3.20;;;19.00;46.20;;;;;;5031386;28;20168;-71
2023/08/29 03:36:35;;;;;;;112.60;3.27;;;18.90;46.90;;;;;;5031255;28;20180;-71
2023/08/29 03:39:02;;;;;;;112.67;3.40;;;19.10;47.10;;;;;;5013571;28;20730;-71
2023/08/29 03:41:28;;;;;;;131.20;4.13;;;19.10;47.40;;;;;;5031184;28;20176;-71
2023/08/29 03:43:53;;;;;;;112.83;3.50;;;18.90;48.20;;;;;;5031164;28;21033;-71
2023/08/29 03:46:21;;;;;;;112.73;3.40;;;19.10;46.60;;;;;;5031093;28;20178;-71
2023/08/29 03:48:46;;;;;;;112.67;3.47;;;19.00;47.40;;;;;;5031178;28;20584;-72
2023/08/29 03:51:12;;;;;;;113.50;3.90;;;22.50;49.20;;;;;;5031399;28;20410;-71
2023/08/29 03:53:38;;;;;;;112.93;3.30;;;18.90;47.70;;;;;;5013422;28;20657;-71
2023/08/29 03:56:06;;;;;;;112.97;3.40;;;18.80;48.00;;;;;;5031115;28;20169;-71
2023/08/29 03:58:32;;;;;;;112.50;3.10;;;18.80;47.90;;;;;;5031145;28;20854;-71
2023/08/29 04:00:58;;;;;;;112.77;3.40;;;18.90;46.90;;;;;;5031194;28;20750;-71
2023/08/29 04:03:24;;;;;;;112.67;3.30;;;18.90;46.50;;;;;;5033345;28;20969;-72
2023/08/29 04:05:51;;;;;;;112.37;2.93;;;18.90;47.00;;;;;;5034616;28;20928;-71
2023/08/29 04:08:16;;;;;;;113.07;3.57;;;19.20;45.60;;;;;;5034829;28;20408;-71
2023/08/29 04:10:42;;;;;;;113.30;3.90;;;19.20;43.80;;;;;;5055317;22;20556;-75
2023/08/29 04:13:09;;;;;;;113.97;4.53;;;19.70;44.50;;;;;;5032967;28;20183;-76
2023/08/29 04:15:35;;;;;;;113.27;3.60;;;19.10;46.00;;;;;;5034501;28;20183;-75
2023/08/29 04:18:02;;;;;;;113.07;3.40;;;19.20;43.50;;;;;;5034448;28;20419;-74
2023/08/29 04:20:29;;;;;;;113.60;3.60;;;19.30;44.00;;;;;;5034192;28;20423;-78
2023/08/29 04:22:55;;;;;;;112.57;3.03;;;19.30;44.10;;;;;;5034245;28;20461;-75
2023/08/29 04:25:21;;;;;;;116.60;3.50;;;19.40;44.30;;;;;;5034427;28;20400;-75
2023/08/29 04:27:48;;;;;;;112.70;3.30;;;19.40;43.90;;;;;;5034103;28;20416;-75
2023/08/29 04:30:14;;;;;;;112.77;3.47;;;19.30;44.00;;;;;;5034052;28;20473;-74
2023/08/29 04:32:39;;;;;;;113.03;3.53;;;19.10;44.00;;;;;;5033056;28;20917;-74
2023/08/29 04:35:08;;;;;;;113.30;3.97;;;18.50;45.30;;;;;;5009121;28;20422;-74
2023/08/29 04:37:35;;;;;;;112.90;3.40;;;18.10;50.30;;;;;;5014072;28;20649;-75
2023/08/29 04:40:01;;;;;;;113.57;4.00;;;18.60;46.50;;;;;;5014119;28;20462;-76
2023/08/29 04:42:27;;;;;;;113.70;3.40;;;18.70;47.40;;;;;;5012022;28;20775;-75
2023/08/29 04:44:53;;;;;;;112.80;3.43;;;18.80;47.50;;;;;;5011045;28;20463;-75
2023/08/29 04:47:22;;;;;;;112.87;3.20;;;19.00;45.70;;;;;;5013847;28;20172;-75
2023/08/29 04:49:47;;;;;;;112.53;3.20;;;19.10;44.40;;;;;;5014069;28;20413;-74
2023/08/29 04:52:13;;;;;;;112.63;3.30;;;19.00;46.70;;;;;;5013812;28;20426;-75
2023/08/29 04:54:39;;;;;;;113.07;3.70;;;18.60;47.90;;;;;;5013664;28;20170;-75
2023/08/29 04:57:05;;;;;;;112.80;3.30;;;19.00;46.30;;;;;;5011357;28;20514;-77
2023/08/29 04:59:30;;;;;;;113.33;4.10;;;19.20;45.30;;;;;;5013688;28;20181;-75
2023/08/29 05:01:56;;;;;;;115.43;4.03;;;19.10;45.10;;;;;;5013636;28;20205;-74
2023/08/29 05:04:21;;;;;;;112.87;3.50;;;18.90;46.00;;;;;;5013502;28;20218;-75
2023/08/29 05:06:47;;;;;;;112.97;3.57;;;18.70;46.70;;;;;;5013541;28;20166;-75
2023/08/29 05:09:13;;;;;;;113.27;3.63;;;18.70;48.20;;;;;;5013636;28;20169;-77
2023/08/29 05:11:38;;;;;;;112.70;3.53;;;18.80;46.50;;;;;;5009888;28;20300;-75
2023/08/29 05:14:04;;;;;;;113.37;3.77;;;18.80;46.90;;;;;;5007614;28;20213;-74
2023/08/29 05:16:32;;;;;;;113.97;4.00;;;19.00;46.20;;;;;;5013007;28;20185;-75
2023/08/29 05:18:58;;;;;;;112.87;3.40;;;19.00;45.40;;;;;;5013378;28;20249;-75
2023/08/29 05:21:24;;;;;;;112.50;3.30;;;18.80;46.40;;;;;;5013257;28;20505;-75
2023/08/29 05:23:50;;;;;;;113.10;3.90;;;18.70;47.50;;;;;;5007334;28;20575;-74
2023/08/29 05:26:16;;;;;;;113.40;3.70;;;18.90;45.90;;;;;;5012859;28;20515;-75
2023/08/29 05:28:42;;;;;;;113.27;3.63;;;19.10;45.40;;;;;;5013187;28;20540;-74
2023/08/29 05:31:08;;;;;;;113.27;3.70;;;19.10;45.70;;;;;;5013191;28;20189;-75
2023/08/29 05:33:33;;;;;;;112.97;3.40;;;19.30;47.60;;;;;;5013029;28;20193;-74
2023/08/29 05:35:59;;;;;;;112.97;3.63;;;18.80;47.70;;;;;;5011513;28;20183;-74
2023/08/29 05:38:27;;;;;;;115.90;3.73;;;18.50;48.40;;;;;;5009557;28;20551;-74
2023/08/29 05:40:53;;;;;;;133.37;4.60;;;18.50;49.70;;;;;;5013090;28;20603;-74
2023/08/29 05:43:18;;;;;;;113.43;3.60;;;18.30;50.00;;;;;;5012810;28;20579;-74
2023/08/29 05:45:44;;;;;;;112.73;3.30;;;18.30;50.60;;;;;;5012648;28;20595;-76
2023/08/29 05:48:09;;;;;;;113.97;3.50;;;17.80;53.90;;;;;;5012928;28;20196;-74
2023/08/29 05:50:35;;;;;;;112.80;3.53;;;17.70;54.30;;;;;;5006033;28;20205;-74
2023/08/29 05:53:01;;;;;;;113.00;3.60;;;17.80;52.40;;;;;;5002618;28;20531;-74
2023/08/29 05:55:26;;;;;;;113.47;3.83;;;17.80;53.80;;;;;;5006856;28;20189;-74
2023/08/29 05:57:52;;;;;;;112.57;3.30;;;17.70;53.20;;;;;;5012595;28;20188;-74
2023/08/29 06:00:19;;;;;;;113.77;4.07;;;17.90;53.70;;;;;;5007194;28;20271;-74
2023/08/29 06:02:44;;;;;;;113.37;4.00;;;18.20;53.00;;;;;;5007273;28;20261;-74
2023/08/29 06:05:10;;;;;;;113.10;3.70;;;18.30;50.80;;;;;;5007188;28;20491;-74
2023/08/29 06:07:38;;;;;;;113.27;3.70;;;18.50;51.40;;;;;;5007236;28;20207;-74
2023/08/29 06:10:06;;;;;;;112.87;3.23;;;18.50;52.10;;;;;;5011995;28;20177;-74
2023/08/29 06:12:31;;;;;;;113.10;3.93;;;18.50;52.50;;;;;;5012345;28;20428;-74
2023/08/29 06:14:57;;;;;;;113.00;3.60;;;18.50;52.40;;;;;;5012164;28;20423;-74
2023/08/29 06:17:22;;;;;;;112.87;3.50;;;18.90;51.90;;;;;;5012297;28;20196;-76
2023/08/29 06:19:48;;;;;;;112.97;3.40;;;19.00;48.10;;;;;;5012187;28;20181;-74
2023/08/29 06:22:13;;;;;;;113.40;3.60;;;18.50;49.00;;;;;;5012134;28;20657;-74
2023/08/29 06:24:39;;;;;;;112.97;3.77;;;18.40;51.50;;;;;;5011712;28;20228;-74
2023/08/29 06:27:05;;;;;;;113.00;3.60;;;18.70;49.20;;;;;;5011538;28;20192;-74
2023/08/29 06:29:31;;;;;;;113.13;3.53;;;18.90;48.60;;;;;;5012084;28;20415;-73
2023/08/29 06:31:56;;;;;;;113.07;3.27;;;18.30;51.90;;;;;;5012211;28;20204;-73
2023/08/29 06:34:23;;;;;;;113.07;3.73;;;18.40;51.00;;;;;;5012068;28;20421;-74
2023/08/29 06:36:49;;;;;;;113.37;3.93;;;18.80;48.70;;;;;;5012022;28;20270;-73
2023/08/29 06:39:15;;;;;;;112.50;3.10;;;18.80;49.30;;;;;;5012402;28;20419;-73
2023/08/29 06:41:40;;;;;;;113.20;3.67;;;18.90;50.70;;;;;;5011930;28;20654;-73
2023/08/29 06:44:07;;;;;;;113.57;3.93;;;18.70;50.20;;;;;;5011946;28;20215;-75
2023/08/29 06:46:33;;;;;;;113.60;4.00;;;18.90;50.80;;;;;;5011994;28;20173;-74
2023/08/29 06:48:59;;;;;;;113.40;3.50;;;18.60;51.80;;;;;;5011955;28;20460;-73
2023/08/29 06:51:24;;;;;;;113.20;3.90;;;19.30;51.00;;;;;;5011723;28;20523;-74
2023/08/29 06:53:50;;;;;;;113.57;3.87;;;18.70;51.30;;;;;;5011714;28;20495;-74
2023/08/29 06:56:16;;;;;;;113.27;3.67;;;18.60;50.80;;;;;;5011516;28;20184;-75
2023/08/29 06:58:41;;;;;;;114.00;3.77;;;18.50;53.00;;;;;;5011842;28;20194;-73
2023/08/29 07:01:07;;;;;;;113.40;3.90;;;18.70;52.10;;;;;;5011732;28;20726;-73
2023/08/29 07:03:32;;;;;;;113.50;3.70;;;18.80;50.50;;;;;;5011565;28;20215;-73
2023/08/29 07:05:59;;;;;;;113.47;3.90;;;19.00;51.60;;;;;;5011489;28;20173;-74
2023/08/29 07:08:24;;;;;;;113.37;3.90;;;18.60;51.70;;;;;;5011446;28;20173;-74
2023/08/29 07:10:50;;;;;;;113.23;3.80;;;18.90;49.30;;;;;;5011538;28;20451;-74
2023/08/29 07:13:16;;;;;;;114.20;4.20;;;19.10;49.30;;;;;;5011659;28;20177;-74
2023/08/29 07:15:42;;;;;;;113.43;3.43;;;19.20;49.40;;;;;;5011492;28;20192;-73
2023/08/29 07:18:07;;;;;;;114.27;4.10;;;19.10;48.80;;;;;;5011523;28;20911;-73
2023/08/29 07:20:33;;;;;;;113.60;3.77;;;19.20;47.50;;;;;;5011668;28;20240;-73
2023/08/29 07:22:59;;;;;;;113.60;3.63;;;19.40;50.00;;;;;;5011400;28;20173;-74
2023/08/29 07:25:44;;;;;;;113.27;3.63;;;18.20;53.20;;;;;;5011167;28;20415;-73
2023/08/29 07:28:16;;;;;;;114.00;3.70;;;17.40;58.30;;;;;;5011460;28;20197;-73
2023/08/29 07:30:47;;;;;;;113.23;3.40;;;17.90;56.80;;;;;;5011943;28;20515;-74
2023/08/29 07:33:14;;;;;;;113.40;3.67;;;18.40;54.10;;;;;;5011326;28;20490;-74
2023/08/29 07:35:40;;;;;;;113.20;3.60;;;18.70;52.10;;;;;;5011320;28;20759;-73
2023/08/29 07:38:07;;;;;;;113.47;3.77;;;18.00;53.90;;;;;;5013283;28;20914;-73
2023/08/29 07:40:33;;;;;;;114.27;4.03;;;17.90;55.90;;;;;;5015233;28;20504;-73
2023/08/29 07:43:04;;;;;;;113.37;3.80;;;18.00;56.00;;;;;;5015144;28;20409;-74
2023/08/29 07:45:30;;;;;;;115.07;3.80;;;17.90;58.40;;;;;;5014901;28;20902;-73
2023/08/29 07:47:56;;;;;;;112.77;3.30;;;18.20;55.20;;;;;;5015047;28;20403;-73
2023/08/29 07:50:21;;;;;;;113.50;3.80;;;18.40;55.80;;;;;;5014916;28;20789;-75
2023/08/29 07:52:47;;;;;;;113.47;3.67;;;18.40;53.30;;;;;;5015203;28;20175;-74
2023/08/29 07:55:13;;;;;;;112.97;3.30;;;17.80;57.70;;;;;;5014747;28;20181;-73
2023/08/29 07:57:38;;;;;;;114.70;4.07;;;18.00;57.40;;;;;;5015049;28;20530;-73
2023/08/29 08:00:08;;;;;;;114.17;3.90;;;17.10;62.50;;;;;;5014950;28;20636;-74
2023/08/29 08:02:38;;;;;;;114.97;3.93;;;17.20;62.30;;;;;;5014820;28;20669;-74
2023/08/29 08:05:07;;;;;;;113.27;3.60;;;17.90;59.00;;;;;;5014537;28;20544;-74
2023/08/29 08:07:33;;;;;;;112.97;3.50;;;18.40;58.20;;;;;;5014707;28;20725;-74
2023/08/29 08:09:58;;;;;;;113.10;3.30;;;18.40;53.90;;;;;;5014849;28;20436;-73
2023/08/29 08:12:25;;;;;;;112.97;3.20;;;18.40;54.30;;;;;;5014724;28;20178;-74
2023/08/29 08:14:52;;;;;;;113.60;3.60;;;17.80;58.30;;;;;;5014519;28;20690;-73
2023/08/29 08:17:18;;;;;;;114.07;4.07;;;17.30;61.60;;;;;;5014674;28;20451;-73
2023/08/29 08:19:44;;;;;;;115.90;4.37;;;17.30;65.70;;;;;;5014626;28;20452;-73
2023/08/29 08:22:10;;;;;;;115.23;4.37;;;17.10;65.40;;;;;;5014631;28;20248;-73
2023/08/29 08:24:35;;;;;;;113.83;4.20;;;17.00;65.10;;;;;;5014077;28;20208;-73
2023/08/29 08:27:01;;;;;;;113.67;3.80;;;16.90;66.90;;;;;;5014581;28;20773;-73
2023/08/29 08:29:27;;;;;;;113.20;3.57;;;17.50;64.70;;;;;;5014181;28;20536;-74
2023/08/29 08:31:52;;;;;;;113.40;3.53;;;17.50;62.00;;;;;;5014262;28;20338;-74
2023/08/29 08:34:18;;;;;;;113.67;3.83;;;17.90;59.30;;;;;;5014137;28;20177;-74
2023/08/29 08:36:43;;;;;;;113.90;3.83;;;17.20;61.00;;;;;;5014084;28;20174;-73
2023/08/29 08:39:09;;;;;;;113.50;3.70;;;17.10;64.10;;;;;;5014105;28;20188;-73
2023/08/29 08:41:36;;;;;;;113.80;3.70;;;17.00;64.60;;;;;;5014167;28;20227;-74
2023/08/29 08:44:06;;;;;;;113.10;3.37;;;17.00;67.50;;;;;;5014069;28;20246;-75
2023/08/29 08:46:33;;;;;;;113.80;4.00;;;16.80;67.60;;;;;;5013972;28;20849;-73
2023/08/29 08:48:59;;;;;;;114.60;3.77;;;16.30;74.10;;;;;;5013005;28;20409;-73
2023/08/29 08:51:26;;;;;;;113.00;3.20;;;16.60;75.10;;;;;;5013802;28;20465;-73
2023/08/29 08:53:53;;;;;;;113.57;3.80;;;17.10;69.00;;;;;;5013950;28;20261;-76
2023/08/29 08:56:19;;;;;;;113.43;3.63;;;17.40;68.00;;;;;;5013618;28;20417;-74
2023/08/29 08:58:45;;;;;;;113.37;3.40;;;17.70;63.30;;;;;;5013749;28;20408;-74
2023/08/29 09:01:12;;;;;;;113.17;3.50;;;18.40;59.00;;;;;;5013752;28;20948;-74
2023/08/29 09:03:38;;;;;;;113.53;3.77;;;18.80;55.50;;;;;;5013664;28;20456;-74
2023/08/29 09:06:05;;;;;;;114.87;4.40;;;19.00;54.30;;;;;;5013402;28;20417;-74
2023/08/29 09:08:31;;;;;;;113.60;3.87;;;18.80;55.20;;;;;;5013535;28;20433;-75
2023/08/29 09:11:01;;;;;;;113.30;3.57;;;19.00;52.30;;;;;;5013495;28;20475;-74
2023/08/29 09:13:26;;;;;;;113.97;4.10;;;19.40;51.20;;;;;;5013452;28;20455;-74
2023/08/29 09:15:52;;;;;;;114.10;4.20;;;19.60;50.50;;;;;;5013183;28;20841;-73
2023/08/29 09:18:26;;;;;;;113.30;3.80;;;18.80;51.60;;;;;;5013496;28;20212;-74
2023/08/29 09:20:53;;;;;;;113.30;3.50;;;18.70;54.40;;;;;;5013241;28;20286;-74
2023/08/29 09:23:26;;;;;;;113.20;3.70;;;18.70;54.70;;;;;;5013315;28;20880;-73
2023/08/29 09:25:56;;;;;;;113.57;3.77;;;19.00;52.00;;;;;;5012862;28;20833;-74
2023/08/29 09:28:25;;;;;;;113.43;3.60;;;19.40;50.10;;;;;;5013080;28;20441;-74
2023/08/29 09:30:51;;;;;;;114.17;3.70;;;16.30;46.50;;;;;;5013068;28;20436;-74
2023/08/29 09:33:22;;;;;;;113.70;3.80;;;19.30;50.60;;;;;;5013143;28;20415;-74
2023/08/29 09:35:51;;;;;;;113.63;3.60;;;18.60;54.90;;;;;;5012863;28;20787;-73
2023/08/29 09:38:20;;;;;;;113.67;3.87;;;18.30;58.20;;;;;;5013003;28;20463;-74
2023/08/29 09:40:51;;;;;;;113.37;3.40;;;17.80;62.00;;;;;;5012857;28;20446;-74
2023/08/29 09:43:17;;;;;;;114.40;3.73;;;17.80;59.20;;;;;;5012971;28;20422;-74
2023/08/29 09:45:51;;;;;;;113.17;3.53;;;17.50;63.40;;;;;;5012584;28;20960;-73
2023/08/29 09:48:18;;;;;;;114.70;4.10;;;16.80;68.30;;;;;;5012987;28;20431;-74
2023/08/29 09:50:44;;;;;;;113.87;3.77;;;16.60;71.60;;;;;;5012613;28;20431;-73
2023/08/29 09:53:13;;;;;;;114.07;3.97;;;16.50;73.70;;;;;;5012910;28;20798;-76
2023/08/29 09:55:43;;;;;;;113.53;3.57;;;16.60;76.70;;;;;;5012397;28;20409;-74
2023/08/29 09:58:10;;;;;;;113.60;3.70;;;17.50;71.40;;;;;;5012758;28;20411;-73
2023/08/29 10:00:37;;;;;;;113.53;3.80;;;17.70;66.60;;;;;;5012182;28;20503;-76
2023/08/29 10:03:10;;;;;;;113.93;4.17;;;17.80;63.40;;;;;;5012704;28;20461;-74
2023/08/29 10:05:38;;;;;;;114.47;3.63;;;17.50;66.10;;;;;;5012159;28;20440;-74
2023/08/29 10:08:25;;;;;;;112.93;3.20;;;17.30;69.90;;;;;;5012752;28;20408;-73
2023/08/29 10:10:53;;;;;;;115.27;4.33;;;17.30;66.50;;;;;;5012323;28;20457;-74
2023/08/29 10:13:20;;;;;;;113.30;3.43;;;17.20;67.30;;;;;;5012499;28;20466;-73
2023/08/29 10:15:47;;;;;;;113.77;3.90;;;17.10;72.80;;;;;;5011957;28;20407;-73
2023/08/29 10:18:13;;;;;;;114.63;4.07;;;17.00;70.30;;;;;;5012426;28;20415;-74
2023/08/29 10:20:43;;;;;;;113.17;3.40;;;17.40;68.40;;;;;;5012209;28;20461;-73
2023/08/29 10:23:11;;;;;;;113.10;3.50;;;17.50;69.80;;;;;;5012306;28;20409;-74
2023/08/29 10:25:39;;;;;;;113.57;3.40;;;17.30;69.30;;;;;;5012000;28;20431;-73
2023/08/29 10:28:10;;;;;;;113.17;3.50;;;17.40;66.40;;;;;;5012336;28;20444;-74
2023/08/29 10:30:39;;;;;;;114.00;3.80;;;17.70;67.50;;;;;;5012152;28;20431;-73
2023/08/29 10:33:05;;;;;;;113.37;3.50;;;17.80;65.50;;;;;;5012171;28;20467;-73
2023/08/29 10:35:32;;;;;;;113.57;3.83;;;17.80;64.70;;;;;;5011794;28;20437;-74
2023/08/29 10:38:01;;;;;;;114.00;4.00;;;17.80;61.40;;;;;;5012146;28;20405;-73
2023/08/29 10:40:35;;;;;;;116.80;5.53;;;18.50;64.70;;;;;;4994166;28;20446;-74
2023/08/29 10:43:02;;;;;;;113.80;4.00;;;18.30;59.60;;;;;;5011913;28;20415;-73
2023/08/29 10:46:20;;;;;;;113.27;3.53;;;17.90;58.90;;;;;;5011795;28;20422;-73
2023/08/29 10:48:46;;;;;;;113.67;3.90;;;17.60;65.00;;;;;;4931879;29;20870;-74
2023/08/29 10:51:14;;;;;;;113.87;3.67;;;18.30;62.80;;;;;;4931773;29;20433;-74
2023/08/29 10:53:51;;;;;;;113.60;3.80;;;17.70;58.00;;;;;;4932191;29;20185;-74
2023/08/29 10:56:19;;;;;;;114.07;4.07;;;18.00;59.10;;;;;;4931702;29;20431;-76
2023/08/29 10:58:47;;;;;;;113.57;3.67;;;18.00;60.10;;;;;;4932154;29;20420;-73
2023/08/29 11:01:30;;;;;;;113.23;3.60;;;18.00;61.80;;;;;;4931982;29;20969;-73
2023/08/29 11:04:00;;;;;;;113.07;3.30;;;17.70;65.30;;;;;;4932340;29;20483;-73
2023/08/29 11:06:47;;;;;;;112.97;3.27;;;17.60;63.90;;;;;;4931685;29;20416;-73
2023/08/29 11:09:20;;;;;;;113.43;3.80;;;17.60;65.60;;;;;;4932033;29;20456;-73
2023/08/29 11:12:05;;;;;;;112.83;3.33;;;17.30;61.60;;;;;;4932425;29;20902;-74
2023/08/29 11:14:52;;;;;;;113.03;3.70;;;18.10;60.90;;;;;;4938245;29;20421;-76
2023/08/29 11:17:25;;;;;;;113.30;3.90;;;18.30;59.20;;;;;;4938006;29;20428;-74
2023/08/29 11:19:58;;;;;;;113.00;3.40;;;18.70;58.10;;;;;;4938458;29;20424;-74
2023/08/29 11:22:26;;;;;;;113.37;3.77;;;18.20;59.40;;;;;;4937904;29;20417;-75
2023/08/29 11:24:54;;;;;;;112.97;3.30;;;18.50;62.70;;;;;;5005547;28;20468;-74
2023/08/29 11:27:21;;;;;;;114.20;4.00;;;18.70;60.30;;;;;;5017828;28;20417;-74
2023/08/29 11:29:47;;;;;;;113.70;3.73;;;18.80;58.00;;;;;;5018198;28;20406;-74
2023/08/29 11:32:13;;;;;;;114.07;3.63;;;18.90;56.90;;;;;;5017722;28;20446;-74
2023/08/29 11:34:39;;;;;;;112.37;3.27;;;19.30;55.20;;;;;;5017831;28;20407;-74
2023/08/29 11:37:09;;;;;;;113.27;3.57;;;19.50;53.80;;;;;;5017753;28;20194;-75
2023/08/29 11:39:36;;;;;;;112.97;3.50;;;19.50;50.30;;;;;;5018076;28;20186;-74
2023/08/29 11:42:03;;;;;;;113.37;4.13;;;20.20;54.00;;;;;;5017801;28;20856;-76
2023/08/29 11:44:32;;;;;;;113.23;3.80;;;20.10;46.10;;;;;;5017660;28;20487;-74
2023/08/29 11:46:57;;;;;;;113.30;3.90;;;19.30;52.40;;;;;;5017780;28;20438;-74
2023/08/29 11:49:24;;;;;;;112.87;3.30;;;18.70;56.70;;;;;;5017879;28;20486;-75
2023/08/29 11:51:50;;;;;;;112.67;3.57;;;18.30;61.40;;;;;;5044497;23;20720;-71
2023/08/29 11:54:45;;;;;;;112.20;3.17;;;18.70;53.10;;;;;;5034882;28;20501;-70
2023/08/29 11:57:12;;;;;;;112.47;3.27;;;17.80;55.80;;;;;;5037552;28;20653;-70
2023/08/29 11:59:45;;;;;;;112.17;3.20;;;17.50;63.00;;;;;;5037641;28;20420;-70
2023/08/29 12:02:12;;;;;;;113.07;3.47;;;17.30;65.20;;;;;;5019432;28;20574;-70
2023/08/29 12:04:42;;;;;;;112.97;3.43;;;17.40;67.70;;;;;;5037319;28;20452;-70
2023/08/29 12:07:12;;;;;;;112.87;3.63;;;17.50;66.30;;;;;;5037375;28;20826;-71
2023/08/29 12:09:42;;;;;;;112.77;3.87;;;17.50;71.50;;;;;;5037620;28;20409;-71
2023/08/29 12:12:09;;;;;;;113.47;3.90;;;17.80;74.50;;;;;;5037337;28;20434;-71
2023/08/29 12:14:51;;;;;;;112.57;3.63;;;17.60;69.40;;;;;;5019426;28;20422;-70
2023/08/29 12:17:18;;;;;;;112.77;3.73;;;17.20;73.90;;;;;;5037244;28;20914;-72
2023/08/29 12:19:44;;;;;;;112.27;3.33;;;17.10;78.80;;;;;;5037551;28;20437;-72
2023/08/29 12:22:10;;;;;;;112.93;3.77;;;16.80;80.90;;;;;;5037562;28;20831;-71
2023/08/29 12:24:35;;;;;;;113.03;3.50;;;17.00;82.40;;;;;;5034872;28;20446;-72
2023/08/29 12:27:01;;;;;;;112.60;3.70;;;17.90;77.40;;;;;;5016474;28;20602;-70
2023/08/29 12:29:26;;;;;;;113.87;4.00;;;18.20;70.30;;;;;;5034082;28;20713;-71